sensor_id;sensor_type;location;lat;lon;timestamp;P1;durP1;ratioP1;P2;durP2;ratioP2
39888;SDS011;25563;50.844;4.308;2024-03-17T00:02:08;5.38;;;4.88;;
39888;SDS011;25563;50.844;4.308;2024-03-17T00:04:34;8.82;;;5.18;;
39888;SDS011;25563;50.844;4.308;2024-03-17T00:07:00;7.57;;;4.93;;
39888;SDS011;25563;50.844;4.308;2024-03-17T00:09:26;8.80;;;4.75;;
39888;SDS011;25563;50.844;4.308;2024-03-17T00:11:51;7.20;;;4.45;;
39888;SDS011;25563;50.844;4.308;2024-03-17T00:14:17;10.65;;;6.03;;
39888;SDS011;25563;50.844;4.308;2024-03-17T00:16:43;7.20;;;5.07;;
39888;SDS011;25563;50.844;4.308;2024-03-17T00:19:10;5.25;;;4.72;;
39888;SDS011;25563;50.844;4.308;2024-03-17T00:21:36;6.70;;;5.07;;
39888;SDS011;25563;50.844;4.308;2024-03-17T00:24:02;8.43;;;5.28;;
39888;SDS011;25563;50.844;4.308;2024-03-17T00:26:29;6.50;;;4.72;;
39888;SDS011;25563;50.844;4.308;2024-03-17T00:28:55;6.05;;;5.55;;
39888;SDS011;25563;50.844;4.308;2024-03-17T00:31:22;5.65;;;5.05;;
39888;SDS011;25563;50.844;4.308;2024-03-17T00:33:51;6.55;;;5.53;;
39888;SDS011;25563;50.844;4.308;2024-03-17T00:36:17;7.15;;;4.55;;
39888;SDS011;25563;50.844;4.308;2024-03-17T00:38:43;5.53;;;5.03;;
39888;SDS011;25563;50.844;4.308;2024-03-17T00:41:09;5.65;;;4.55;;
39888;SDS011;25563;50.844;4.308;2024-03-17T00:43:36;5.95;;;4.60;;
39888;SDS011;25563;50.844;4.308;2024-03-17T00:46:02;7.93;;;5.22;;
39888;SDS011;25563;50.844;4.308;2024-03-17T00:48:28;6.10;;;5.50;;
39888;SDS011;25563;50.844;4.308;2024-03-17T00:50:57;6.75;;;5.28;;
39888;SDS011;25563;50.844;4.308;2024-03-17T00:53:24;6.32;;;4.70;;
39888;SDS011;25563;50.844;4.308;2024-03-17T00:55:52;8.05;;;5.45;;
39888;SDS011;25563;50.844;4.308;2024-03-17T00:58:23;7.45;;;4.85;;
39888;SDS011;25563;50.844;4.308;2024-03-17T01:00:49;6.35;;;5.75;;
39888;SDS011;25563;50.844;4.308;2024-03-17T01:03:16;7.00;;;5.88;;
39888;SDS011;25563;50.844;4.308;2024-03-17T01:05:42;9.40;;;6.05;;
39888;SDS011;25563;50.844;4.308;2024-03-17T01:08:10;6.18;;;5.35;;
39888;SDS011;25563;50.844;4.308;2024-03-17T01:10:39;5.60;;;5.05;;
39888;SDS011;25563;50.844;4.308;2024-03-17T01:13:06;6.65;;;5.55;;
39888;SDS011;25563;50.844;4.308;2024-03-17T01:15:33;7.60;;;5.90;;
39888;SDS011;25563;50.844;4.308;2024-03-17T01:18:00;7.88;;;5.50;;
39888;SDS011;25563;50.844;4.308;2024-03-17T01:20:26;6.07;;;5.40;;
39888;SDS011;25563;50.844;4.308;2024-03-17T01:22:51;6.95;;;5.80;;
39888;SDS011;25563;50.844;4.308;2024-03-17T01:25:17;8.40;;;6.13;;
39888;SDS011;25563;50.844;4.308;2024-03-17T01:27:43;6.13;;;5.53;;
39888;SDS011;25563;50.844;4.308;2024-03-17T01:30:10;9.43;;;5.25;;
39888;SDS011;25563;50.844;4.308;2024-03-17T01:32:37;7.28;;;5.38;;
39888;SDS011;25563;50.844;4.308;2024-03-17T01:35:03;6.45;;;5.57;;
39888;SDS011;25563;50.844;4.308;2024-03-17T01:37:31;5.78;;;5.15;;
39888;SDS011;25563;50.844;4.308;2024-03-17T01:39:57;9.35;;;5.60;;
39888;SDS011;25563;50.844;4.308;2024-03-17T01:42:23;6.70;;;5.32;;
39888;SDS011;25563;50.844;4.308;2024-03-17T01:44:49;5.88;;;5.32;;
39888;SDS011;25563;50.844;4.308;2024-03-17T01:47:16;6.00;;;4.90;;
39888;SDS011;25563;50.844;4.308;2024-03-17T01:49:46;6.15;;;5.55;;
39888;SDS011;25563;50.844;4.308;2024-03-17T01:52:14;8.63;;;5.57;;
39888;SDS011;25563;50.844;4.308;2024-03-17T01:54:44;10.30;;;5.63;;
39888;SDS011;25563;50.844;4.308;2024-03-17T01:57:11;7.10;;;5.78;;
39888;SDS011;25563;50.844;4.308;2024-03-17T01:59:38;9.35;;;5.85;;
39888;SDS011;25563;50.844;4.308;2024-03-17T02:02:05;7.00;;;5.32;;
39888;SDS011;25563;50.844;4.308;2024-03-17T02:04:31;7.28;;;5.82;;
39888;SDS011;25563;50.844;4.308;2024-03-17T02:06:57;6.22;;;5.05;;
39888;SDS011;25563;50.844;4.308;2024-03-17T02:09:22;10.02;;;5.60;;
39888;SDS011;25563;50.844;4.308;2024-03-17T02:11:48;6.93;;;5.80;;
39888;SDS011;25563;50.844;4.308;2024-03-17T02:14:14;7.72;;;5.55;;
39888;SDS011;25563;50.844;4.308;2024-03-17T02:16:42;11.00;;;5.45;;
39888;SDS011;25563;50.844;4.308;2024-03-17T02:19:08;8.32;;;5.65;;
39888;SDS011;25563;50.844;4.308;2024-03-17T02:21:35;8.60;;;6.32;;
39888;SDS011;25563;50.844;4.308;2024-03-17T02:24:02;7.53;;;5.38;;
39888;SDS011;25563;50.844;4.308;2024-03-17T02:26:31;6.77;;;6.03;;
39888;SDS011;25563;50.844;4.308;2024-03-17T02:28:57;6.70;;;6.00;;
39888;SDS011;25563;50.844;4.308;2024-03-17T02:31:24;6.38;;;5.78;;
39888;SDS011;25563;50.844;4.308;2024-03-17T02:33:50;6.75;;;5.50;;
39888;SDS011;25563;50.844;4.308;2024-03-17T02:36:17;8.00;;;5.80;;
39888;SDS011;25563;50.844;4.308;2024-03-17T02:38:43;7.22;;;5.18;;
39888;SDS011;25563;50.844;4.308;2024-03-17T02:41:28;9.52;;;5.40;;
39888;SDS011;25563;50.844;4.308;2024-03-17T02:43:58;7.93;;;5.68;;
39888;SDS011;25563;50.844;4.308;2024-03-17T02:46:24;6.82;;;5.15;;
39888;SDS011;25563;50.844;4.308;2024-03-17T02:48:50;5.90;;;5.30;;
39888;SDS011;25563;50.844;4.308;2024-03-17T02:51:19;5.88;;;5.28;;
39888;SDS011;25563;50.844;4.308;2024-03-17T02:53:46;8.25;;;5.53;;
39888;SDS011;25563;50.844;4.308;2024-03-17T02:56:15;8.07;;;5.05;;
39888;SDS011;25563;50.844;4.308;2024-03-17T02:58:42;7.35;;;5.25;;
39888;SDS011;25563;50.844;4.308;2024-03-17T03:01:08;5.28;;;4.88;;
39888;SDS011;25563;50.844;4.308;2024-03-17T03:03:35;10.65;;;4.95;;
39888;SDS011;25563;50.844;4.308;2024-03-17T03:06:02;5.30;;;4.85;;
39888;SDS011;25563;50.844;4.308;2024-03-17T03:08:35;5.95;;;4.95;;
39888;SDS011;25563;50.844;4.308;2024-03-17T03:11:03;5.57;;;5.05;;
39888;SDS011;25563;50.844;4.308;2024-03-17T03:13:32;7.65;;;5.35;;
39888;SDS011;25563;50.844;4.308;2024-03-17T03:15:57;5.68;;;5.00;;
39888;SDS011;25563;50.844;4.308;2024-03-17T03:18:23;6.30;;;4.75;;
39888;SDS011;25563;50.844;4.308;2024-03-17T03:20:52;6.13;;;5.63;;
39888;SDS011;25563;50.844;4.308;2024-03-17T03:23:18;7.45;;;4.68;;
39888;SDS011;25563;50.844;4.308;2024-03-17T03:25:44;8.70;;;4.93;;
39888;SDS011;25563;50.844;4.308;2024-03-17T03:28:12;5.65;;;5.18;;
39888;SDS011;25563;50.844;4.308;2024-03-17T03:30:38;6.70;;;5.20;;
39888;SDS011;25563;50.844;4.308;2024-03-17T03:33:04;6.50;;;5.05;;
39888;SDS011;25563;50.844;4.308;2024-03-17T03:35:30;5.60;;;4.93;;
39888;SDS011;25563;50.844;4.308;2024-03-17T03:37:56;6.72;;;4.30;;
39888;SDS011;25563;50.844;4.308;2024-03-17T03:40:22;7.32;;;5.07;;
39888;SDS011;25563;50.844;4.308;2024-03-17T03:42:48;7.50;;;5.15;;
39888;SDS011;25563;50.844;4.308;2024-03-17T03:45:14;6.05;;;4.95;;
39888;SDS011;25563;50.844;4.308;2024-03-17T03:47:42;6.00;;;4.80;;
39888;SDS011;25563;50.844;4.308;2024-03-17T03:50:08;6.78;;;5.05;;
39888;SDS011;25563;50.844;4.308;2024-03-17T03:52:37;5.38;;;4.85;;
39888;SDS011;25563;50.844;4.308;2024-03-17T03:55:10;7.15;;;5.05;;
39888;SDS011;25563;50.844;4.308;2024-03-17T03:57:39;5.60;;;5.10;;
39888;SDS011;25563;50.844;4.308;2024-03-17T04:00:04;8.18;;;4.75;;
39888;SDS011;25563;50.844;4.308;2024-03-17T04:02:41;6.30;;;4.55;;
39888;SDS011;25563;50.844;4.308;2024-03-17T04:05:07;9.35;;;4.70;;
39888;SDS011;25563;50.844;4.308;2024-03-17T04:07:34;8.88;;;4.85;;
39888;SDS011;25563;50.844;4.308;2024-03-17T04:10:02;5.05;;;4.65;;
39888;SDS011;25563;50.844;4.308;2024-03-17T04:12:29;8.73;;;4.72;;
39888;SDS011;25563;50.844;4.308;2024-03-17T04:14:58;5.85;;;4.57;;
39888;SDS011;25563;50.844;4.308;2024-03-17T04:17:25;9.00;;;5.15;;
39888;SDS011;25563;50.844;4.308;2024-03-17T04:19:54;5.38;;;4.88;;
39888;SDS011;25563;50.844;4.308;2024-03-17T04:22:20;6.18;;;4.60;;
39888;SDS011;25563;50.844;4.308;2024-03-17T04:24:49;7.07;;;4.57;;
39888;SDS011;25563;50.844;4.308;2024-03-17T04:27:24;5.33;;;4.77;;
39888;SDS011;25563;50.844;4.308;2024-03-17T04:29:54;7.28;;;4.95;;
39888;SDS011;25563;50.844;4.308;2024-03-17T04:32:21;6.68;;;5.75;;
39888;SDS011;25563;50.844;4.308;2024-03-17T04:34:47;11.35;;;5.10;;
39888;SDS011;25563;50.844;4.308;2024-03-17T04:37:13;7.82;;;5.15;;
39888;SDS011;25563;50.844;4.308;2024-03-17T04:39:40;6.25;;;5.03;;
39888;SDS011;25563;50.844;4.308;2024-03-17T04:42:08;6.07;;;4.65;;
39888;SDS011;25563;50.844;4.308;2024-03-17T04:44:37;6.18;;;5.15;;
39888;SDS011;25563;50.844;4.308;2024-03-17T04:47:03;5.65;;;5.20;;
39888;SDS011;25563;50.844;4.308;2024-03-17T04:49:41;8.35;;;4.75;;
39888;SDS011;25563;50.844;4.308;2024-03-17T04:52:10;8.52;;;6.20;;
39888;SDS011;25563;50.844;4.308;2024-03-17T04:54:38;5.38;;;4.88;;
39888;SDS011;25563;50.844;4.308;2024-03-17T04:57:06;13.52;;;6.43;;
39888;SDS011;25563;50.844;4.308;2024-03-17T04:59:33;7.72;;;5.18;;
39888;SDS011;25563;50.844;4.308;2024-03-17T05:02:01;7.13;;;5.60;;
39888;SDS011;25563;50.844;4.308;2024-03-17T05:04:27;6.13;;;5.53;;
39888;SDS011;25563;50.844;4.308;2024-03-17T05:06:54;8.07;;;5.38;;
39888;SDS011;25563;50.844;4.308;2024-03-17T05:09:19;6.60;;;6.10;;
39888;SDS011;25563;50.844;4.308;2024-03-17T05:11:45;7.93;;;5.75;;
39888;SDS011;25563;50.844;4.308;2024-03-17T05:14:12;8.00;;;5.60;;
39888;SDS011;25563;50.844;4.308;2024-03-17T05:16:38;6.68;;;4.88;;
39888;SDS011;25563;50.844;4.308;2024-03-17T05:19:04;11.60;;;5.63;;
39888;SDS011;25563;50.844;4.308;2024-03-17T05:21:30;5.65;;;5.18;;
39888;SDS011;25563;50.844;4.308;2024-03-17T05:23:57;7.07;;;5.07;;
39888;SDS011;25563;50.844;4.308;2024-03-17T05:26:26;6.68;;;5.50;;
39888;SDS011;25563;50.844;4.308;2024-03-17T05:28:52;6.47;;;5.70;;
39888;SDS011;25563;50.844;4.308;2024-03-17T05:31:19;8.40;;;6.20;;
39888;SDS011;25563;50.844;4.308;2024-03-17T05:33:47;6.10;;;5.57;;
39888;SDS011;25563;50.844;4.308;2024-03-17T05:36:13;7.40;;;5.80;;
39888;SDS011;25563;50.844;4.308;2024-03-17T05:38:39;5.85;;;5.20;;
39888;SDS011;25563;50.844;4.308;2024-03-17T05:41:05;8.48;;;5.88;;
39888;SDS011;25563;50.844;4.308;2024-03-17T05:43:33;6.65;;;6.05;;
39888;SDS011;25563;50.844;4.308;2024-03-17T05:46:03;10.40;;;6.10;;
39888;SDS011;25563;50.844;4.308;2024-03-17T05:48:34;9.07;;;6.10;;
39888;SDS011;25563;50.844;4.308;2024-03-17T05:51:07;7.13;;;6.05;;
39888;SDS011;25563;50.844;4.308;2024-03-17T05:53:34;5.38;;;4.85;;
39888;SDS011;25563;50.844;4.308;2024-03-17T05:56:01;6.38;;;4.93;;
39888;SDS011;25563;50.844;4.308;2024-03-17T05:58:28;8.23;;;5.18;;
39888;SDS011;25563;50.844;4.308;2024-03-17T06:00:54;5.25;;;4.78;;
39888;SDS011;25563;50.844;4.308;2024-03-17T06:03:20;5.85;;;5.35;;
39888;SDS011;25563;50.844;4.308;2024-03-17T06:05:47;5.35;;;4.85;;
39888;SDS011;25563;50.844;4.308;2024-03-17T06:08:13;8.35;;;5.45;;
39888;SDS011;25563;50.844;4.308;2024-03-17T06:10:43;5.47;;;4.45;;
39888;SDS011;25563;50.844;4.308;2024-03-17T06:13:13;5.28;;;4.88;;
39888;SDS011;25563;50.844;4.308;2024-03-17T06:15:43;7.35;;;5.47;;
39888;SDS011;25563;50.844;4.308;2024-03-17T06:18:11;5.75;;;5.00;;
39888;SDS011;25563;50.844;4.308;2024-03-17T06:20:46;5.57;;;5.15;;
39888;SDS011;25563;50.844;4.308;2024-03-17T06:23:13;9.18;;;5.10;;
39888;SDS011;25563;50.844;4.308;2024-03-17T06:25:41;6.28;;;4.25;;
39888;SDS011;25563;50.844;4.308;2024-03-17T06:28:08;8.88;;;4.78;;
39888;SDS011;25563;50.844;4.308;2024-03-17T06:30:39;5.68;;;5.13;;
39888;SDS011;25563;50.844;4.308;2024-03-17T06:33:06;9.85;;;5.05;;
39888;SDS011;25563;50.844;4.308;2024-03-17T06:35:33;5.75;;;5.10;;
39888;SDS011;25563;50.844;4.308;2024-03-17T06:38:01;5.22;;;4.65;;
39888;SDS011;25563;50.844;4.308;2024-03-17T06:40:29;7.32;;;4.95;;
39888;SDS011;25563;50.844;4.308;2024-03-17T06:42:55;10.38;;;5.50;;
39888;SDS011;25563;50.844;4.308;2024-03-17T06:45:21;10.45;;;4.90;;
39888;SDS011;25563;50.844;4.308;2024-03-17T06:47:47;5.40;;;4.82;;
39888;SDS011;25563;50.844;4.308;2024-03-17T06:50:13;6.35;;;4.47;;
39888;SDS011;25563;50.844;4.308;2024-03-17T06:52:39;9.80;;;4.78;;
39888;SDS011;25563;50.844;4.308;2024-03-17T06:55:06;8.05;;;4.78;;
39888;SDS011;25563;50.844;4.308;2024-03-17T06:57:33;7.22;;;5.00;;
39888;SDS011;25563;50.844;4.308;2024-03-17T06:59:59;10.18;;;5.25;;
39888;SDS011;25563;50.844;4.308;2024-03-17T07:02:31;8.57;;;5.38;;
39888;SDS011;25563;50.844;4.308;2024-03-17T07:04:57;5.45;;;4.95;;
39888;SDS011;25563;50.844;4.308;2024-03-17T07:07:26;7.47;;;5.45;;
39888;SDS011;25563;50.844;4.308;2024-03-17T07:09:55;9.30;;;5.50;;
39888;SDS011;25563;50.844;4.308;2024-03-17T07:12:22;6.35;;;5.35;;
39888;SDS011;25563;50.844;4.308;2024-03-17T07:14:51;7.72;;;5.18;;
39888;SDS011;25563;50.844;4.308;2024-03-17T07:17:18;10.82;;;5.90;;
39888;SDS011;25563;50.844;4.308;2024-03-17T07:19:44;6.63;;;5.40;;
39888;SDS011;25563;50.844;4.308;2024-03-17T07:22:10;5.97;;;4.88;;
39888;SDS011;25563;50.844;4.308;2024-03-17T07:24:35;6.22;;;4.78;;
39888;SDS011;25563;50.844;4.308;2024-03-17T07:27:01;7.68;;;5.18;;
39888;SDS011;25563;50.844;4.308;2024-03-17T07:29:28;5.97;;;5.38;;
39888;SDS011;25563;50.844;4.308;2024-03-17T07:31:54;6.75;;;4.85;;
39888;SDS011;25563;50.844;4.308;2024-03-17T07:34:19;8.35;;;4.75;;
39888;SDS011;25563;50.844;4.308;2024-03-17T07:36:45;6.60;;;4.90;;
39888;SDS011;25563;50.844;4.308;2024-03-17T07:39:11;5.30;;;4.82;;
39888;SDS011;25563;50.844;4.308;2024-03-17T07:41:37;7.57;;;4.93;;
39888;SDS011;25563;50.844;4.308;2024-03-17T07:44:03;8.20;;;4.80;;
39888;SDS011;25563;50.844;4.308;2024-03-17T07:46:30;7.65;;;5.13;;
39888;SDS011;25563;50.844;4.308;2024-03-17T07:48:55;6.05;;;4.40;;
39888;SDS011;25563;50.844;4.308;2024-03-17T07:51:21;10.80;;;5.00;;
39888;SDS011;25563;50.844;4.308;2024-03-17T07:53:48;6.40;;;4.72;;
39888;SDS011;25563;50.844;4.308;2024-03-17T07:56:14;6.72;;;4.70;;
39888;SDS011;25563;50.844;4.308;2024-03-17T07:58:41;13.93;;;4.60;;
39888;SDS011;25563;50.844;4.308;2024-03-17T08:01:09;4.65;;;4.00;;
39888;SDS011;25563;50.844;4.308;2024-03-17T08:03:39;5.70;;;4.50;;
39888;SDS011;25563;50.844;4.308;2024-03-17T08:06:08;7.43;;;3.97;;
39888;SDS011;25563;50.844;4.308;2024-03-17T08:08:37;7.88;;;4.80;;
39888;SDS011;25563;50.844;4.308;2024-03-17T08:11:03;10.38;;;4.28;;
39888;SDS011;25563;50.844;4.308;2024-03-17T08:13:30;10.18;;;4.65;;
39888;SDS011;25563;50.844;4.308;2024-03-17T08:16:04;5.05;;;4.35;;
39888;SDS011;25563;50.844;4.308;2024-03-17T08:18:31;7.97;;;3.80;;
39888;SDS011;25563;50.844;4.308;2024-03-17T08:20:57;4.18;;;3.78;;
39888;SDS011;25563;50.844;4.308;2024-03-17T08:23:25;5.03;;;4.28;;
39888;SDS011;25563;50.844;4.308;2024-03-17T08:25:54;6.40;;;3.67;;
39888;SDS011;25563;50.844;4.308;2024-03-17T08:28:26;6.65;;;3.42;;
39888;SDS011;25563;50.844;4.308;2024-03-17T08:30:59;7.97;;;4.22;;
39888;SDS011;25563;50.844;4.308;2024-03-17T08:33:26;4.40;;;3.95;;
39888;SDS011;25563;50.844;4.308;2024-03-17T08:36:06;5.28;;;4.05;;
39888;SDS011;25563;50.844;4.308;2024-03-17T08:38:34;6.20;;;4.80;;
39888;SDS011;25563;50.844;4.308;2024-03-17T08:41:04;7.88;;;4.00;;
39888;SDS011;25563;50.844;4.308;2024-03-17T08:43:35;5.60;;;4.72;;
39888;SDS011;25563;50.844;4.308;2024-03-17T08:46:02;6.32;;;4.50;;
39888;SDS011;25563;50.844;4.308;2024-03-17T08:48:35;4.35;;;3.47;;
39888;SDS011;25563;50.844;4.308;2024-03-17T08:51:04;5.50;;;4.13;;
39888;SDS011;25563;50.844;4.308;2024-03-17T08:53:31;5.65;;;3.30;;
39888;SDS011;25563;50.844;4.308;2024-03-17T08:55:57;3.70;;;2.92;;
39888;SDS011;25563;50.844;4.308;2024-03-17T08:58:25;5.32;;;3.70;;
39888;SDS011;25563;50.844;4.308;2024-03-17T09:00:51;5.45;;;3.72;;
39888;SDS011;25563;50.844;4.308;2024-03-17T09:03:17;3.70;;;3.40;;
39888;SDS011;25563;50.844;4.308;2024-03-17T09:05:45;5.28;;;3.22;;
39888;SDS011;25563;50.844;4.308;2024-03-17T09:08:19;5.20;;;3.33;;
39888;SDS011;25563;50.844;4.308;2024-03-17T09:10:51;9.45;;;3.15;;
39888;SDS011;25563;50.844;4.308;2024-03-17T09:13:21;5.05;;;2.85;;
39888;SDS011;25563;50.844;4.308;2024-03-17T09:15:55;6.35;;;3.53;;
39888;SDS011;25563;50.844;4.308;2024-03-17T09:18:27;5.95;;;3.38;;
39888;SDS011;25563;50.844;4.308;2024-03-17T09:23:26;3.88;;;2.88;;
39888;SDS011;25563;50.844;4.308;2024-03-17T09:25:59;4.85;;;3.00;;
39888;SDS011;25563;50.844;4.308;2024-03-17T09:28:30;8.00;;;3.22;;
39888;SDS011;25563;50.844;4.308;2024-03-17T09:30:57;5.40;;;3.60;;
39888;SDS011;25563;50.844;4.308;2024-03-17T09:33:23;7.32;;;3.15;;
39888;SDS011;25563;50.844;4.308;2024-03-17T09:35:59;4.30;;;2.97;;
39888;SDS011;25563;50.844;4.308;2024-03-17T09:38:31;4.18;;;2.75;;
39888;SDS011;25563;50.844;4.308;2024-03-17T09:40:57;5.57;;;3.30;;
39888;SDS011;25563;50.844;4.308;2024-03-17T09:43:23;4.13;;;2.72;;
39888;SDS011;25563;50.844;4.308;2024-03-17T09:45:51;4.18;;;3.00;;
39888;SDS011;25563;50.844;4.308;2024-03-17T09:48:23;4.03;;;2.75;;
39888;SDS011;25563;50.844;4.308;2024-03-17T09:50:51;5.35;;;2.95;;
39888;SDS011;25563;50.844;4.308;2024-03-17T09:53:17;6.75;;;2.72;;
39888;SDS011;25563;50.844;4.308;2024-03-17T09:55:49;6.63;;;2.90;;
39888;SDS011;25563;50.844;4.308;2024-03-17T09:58:16;4.72;;;2.75;;
39888;SDS011;25563;50.844;4.308;2024-03-17T10:00:43;3.08;;;2.35;;
39888;SDS011;25563;50.844;4.308;2024-03-17T10:03:11;5.05;;;2.97;;
39888;SDS011;25563;50.844;4.308;2024-03-17T10:05:37;6.38;;;2.45;;
39888;SDS011;25563;50.844;4.308;2024-03-17T10:08:03;6.70;;;2.58;;
39888;SDS011;25563;50.844;4.308;2024-03-17T10:10:31;6.65;;;3.22;;
39888;SDS011;25563;50.844;4.308;2024-03-17T10:12:56;5.95;;;2.90;;
39888;SDS011;25563;50.844;4.308;2024-03-17T10:15:23;9.25;;;7.13;;
39888;SDS011;25563;50.844;4.308;2024-03-17T10:17:50;5.63;;;2.78;;
39888;SDS011;25563;50.844;4.308;2024-03-17T10:20:17;7.70;;;2.55;;
39888;SDS011;25563;50.844;4.308;2024-03-17T10:25:34;2.83;;;2.58;;
39888;SDS011;25563;50.844;4.308;2024-03-17T10:28:14;6.50;;;3.00;;
39888;SDS011;25563;50.844;4.308;2024-03-17T10:30:42;4.10;;;2.92;;
39888;SDS011;25563;50.844;4.308;2024-03-17T10:33:25;3.60;;;2.17;;
39888;SDS011;25563;50.844;4.308;2024-03-17T10:35:57;4.72;;;2.80;;
39888;SDS011;25563;50.844;4.308;2024-03-17T10:38:27;6.53;;;2.80;;
39888;SDS011;25563;50.844;4.308;2024-03-17T10:40:54;3.90;;;2.65;;
39888;SDS011;25563;50.844;4.308;2024-03-17T10:43:21;3.90;;;2.80;;
39888;SDS011;25563;50.844;4.308;2024-03-17T10:45:53;8.32;;;2.60;;
39888;SDS011;25563;50.844;4.308;2024-03-17T10:48:20;8.00;;;3.08;;
39888;SDS011;25563;50.844;4.308;2024-03-17T10:50:49;5.22;;;2.97;;
39888;SDS011;25563;50.844;4.308;2024-03-17T10:53:19;6.67;;;3.33;;
39888;SDS011;25563;50.844;4.308;2024-03-17T10:55:56;5.22;;;2.55;;
39888;SDS011;25563;50.844;4.308;2024-03-17T10:58:36;8.88;;;3.22;;
39888;SDS011;25563;50.844;4.308;2024-03-17T11:01:11;4.40;;;3.22;;
39888;SDS011;25563;50.844;4.308;2024-03-17T11:03:39;6.80;;;2.80;;
39888;SDS011;25563;50.844;4.308;2024-03-17T11:06:06;9.77;;;3.13;;
39888;SDS011;25563;50.844;4.308;2024-03-17T11:08:36;7.50;;;3.00;;
39888;SDS011;25563;50.844;4.308;2024-03-17T11:11:03;5.85;;;2.13;;
39888;SDS011;25563;50.844;4.308;2024-03-17T11:13:29;8.32;;;3.13;;
39888;SDS011;25563;50.844;4.308;2024-03-17T11:15:57;3.97;;;2.53;;
39888;SDS011;25563;50.844;4.308;2024-03-17T11:18:33;4.47;;;1.90;;
39888;SDS011;25563;50.844;4.308;2024-03-17T11:21:06;5.03;;;2.75;;
39888;SDS011;25563;50.844;4.308;2024-03-17T11:23:54;4.85;;;2.25;;
39888;SDS011;25563;50.844;4.308;2024-03-17T11:26:27;6.35;;;2.28;;
39888;SDS011;25563;50.844;4.308;2024-03-17T11:28:57;4.13;;;2.33;;
39888;SDS011;25563;50.844;4.308;2024-03-17T11:31:35;9.13;;;2.72;;
39888;SDS011;25563;50.844;4.308;2024-03-17T11:36:54;4.97;;;2.17;;
39888;SDS011;25563;50.844;4.308;2024-03-17T11:39:21;8.90;;;2.47;;
39888;SDS011;25563;50.844;4.308;2024-03-17T11:42:27;5.00;;;1.88;;
39888;SDS011;25563;50.844;4.308;2024-03-17T11:44:57;4.60;;;1.80;;
39888;SDS011;25563;50.844;4.308;2024-03-17T11:47:35;3.67;;;1.58;;
39888;SDS011;25563;50.844;4.308;2024-03-17T11:50:03;4.53;;;1.77;;
39888;SDS011;25563;50.844;4.308;2024-03-17T11:52:30;5.65;;;1.52;;
39888;SDS011;25563;50.844;4.308;2024-03-17T11:54:56;3.70;;;1.52;;
39888;SDS011;25563;50.844;4.308;2024-03-17T11:57:22;5.82;;;1.60;;
39888;SDS011;25563;50.844;4.308;2024-03-17T11:59:50;6.65;;;2.28;;
39888;SDS011;25563;50.844;4.308;2024-03-17T12:04:56;6.22;;;2.00;;
39888;SDS011;25563;50.844;4.308;2024-03-17T12:07:23;6.05;;;2.13;;
39888;SDS011;25563;50.844;4.308;2024-03-17T12:09:49;4.35;;;1.83;;
39888;SDS011;25563;50.844;4.308;2024-03-17T12:14:44;2.75;;;1.30;;
39888;SDS011;25563;50.844;4.308;2024-03-17T12:17:11;7.82;;;1.77;;
39888;SDS011;25563;50.844;4.308;2024-03-17T12:19:39;2.70;;;1.38;;
39888;SDS011;25563;50.844;4.308;2024-03-17T12:22:05;3.97;;;1.80;;
39888;SDS011;25563;50.844;4.308;2024-03-17T12:24:35;3.65;;;1.60;;
39888;SDS011;25563;50.844;4.308;2024-03-17T12:27:04;3.75;;;1.85;;
39888;SDS011;25563;50.844;4.308;2024-03-17T12:32:19;7.97;;;2.08;;
39888;SDS011;25563;50.844;4.308;2024-03-17T12:34:47;4.88;;;1.80;;
39888;SDS011;25563;50.844;4.308;2024-03-17T12:37:18;1.73;;;0.77;;
39888;SDS011;25563;50.844;4.308;2024-03-17T12:39:49;3.13;;;1.10;;
39888;SDS011;25563;50.844;4.308;2024-03-17T12:42:23;2.55;;;1.20;;
39888;SDS011;25563;50.844;4.308;2024-03-17T12:44:50;6.45;;;1.73;;
39888;SDS011;25563;50.844;4.308;2024-03-17T12:47:20;9.27;;;1.75;;
39888;SDS011;25563;50.844;4.308;2024-03-17T12:49:50;5.70;;;2.00;;
39888;SDS011;25563;50.844;4.308;2024-03-17T12:52:24;2.97;;;1.60;;
39888;SDS011;25563;50.844;4.308;2024-03-17T12:55:03;3.22;;;1.70;;
39888;SDS011;25563;50.844;4.308;2024-03-17T12:57:51;2.20;;;1.00;;
39888;SDS011;25563;50.844;4.308;2024-03-17T13:00:36;5.45;;;1.80;;
39888;SDS011;25563;50.844;4.308;2024-03-17T13:03:03;5.97;;;1.80;;
39888;SDS011;25563;50.844;4.308;2024-03-17T13:05:30;4.03;;;1.17;;
39888;SDS011;25563;50.844;4.308;2024-03-17T13:07:58;4.18;;;1.70;;
39888;SDS011;25563;50.844;4.308;2024-03-17T13:10:28;3.58;;;1.10;;
39888;SDS011;25563;50.844;4.308;2024-03-17T13:13:02;3.08;;;1.30;;
39888;SDS011;25563;50.844;4.308;2024-03-17T13:15:30;4.10;;;1.45;;
39888;SDS011;25563;50.844;4.308;2024-03-17T13:18:00;3.35;;;1.33;;
39888;SDS011;25563;50.844;4.308;2024-03-17T13:20:29;4.40;;;1.70;;
39888;SDS011;25563;50.844;4.308;2024-03-17T13:23:01;3.80;;;1.73;;
39888;SDS011;25563;50.844;4.308;2024-03-17T13:25:54;4.13;;;1.58;;
39888;SDS011;25563;50.844;4.308;2024-03-17T13:28:20;3.15;;;1.75;;
39888;SDS011;25563;50.844;4.308;2024-03-17T13:30:50;3.58;;;1.55;;
39888;SDS011;25563;50.844;4.308;2024-03-17T13:33:29;3.67;;;1.60;;
39888;SDS011;25563;50.844;4.308;2024-03-17T13:39:17;3.85;;;1.50;;
39888;SDS011;25563;50.844;4.308;2024-03-17T13:41:59;4.65;;;1.77;;
39888;SDS011;25563;50.844;4.308;2024-03-17T13:55:15;4.45;;;1.60;;
39888;SDS011;25563;50.844;4.308;2024-03-17T13:57:46;5.15;;;1.65;;
39888;SDS011;25563;50.844;4.308;2024-03-17T14:00:20;4.30;;;1.52;;
39888;SDS011;25563;50.844;4.308;2024-03-17T14:02:47;3.63;;;1.08;;
39888;SDS011;25563;50.844;4.308;2024-03-17T14:05:18;3.25;;;1.90;;
39888;SDS011;25563;50.844;4.308;2024-03-17T14:07:45;5.82;;;1.40;;
39888;SDS011;25563;50.844;4.308;2024-03-17T14:10:16;4.20;;;1.30;;
39888;SDS011;25563;50.844;4.308;2024-03-17T14:12:43;4.43;;;1.20;;
39888;SDS011;25563;50.844;4.308;2024-03-17T14:15:10;3.92;;;1.60;;
39888;SDS011;25563;50.844;4.308;2024-03-17T14:17:38;4.07;;;1.50;;
39888;SDS011;25563;50.844;4.308;2024-03-17T14:20:05;4.07;;;1.10;;
39888;SDS011;25563;50.844;4.308;2024-03-17T14:22:34;3.78;;;1.67;;
39888;SDS011;25563;50.844;4.308;2024-03-17T14:25:06;6.30;;;1.77;;
39888;SDS011;25563;50.844;4.308;2024-03-17T14:27:36;6.20;;;2.05;;
39888;SDS011;25563;50.844;4.308;2024-03-17T14:32:30;5.88;;;2.17;;
39888;SDS011;25563;50.844;4.308;2024-03-17T14:34:56;1.95;;;1.58;;
39888;SDS011;25563;50.844;4.308;2024-03-17T14:37:23;5.88;;;1.48;;
39888;SDS011;25563;50.844;4.308;2024-03-17T14:39:50;6.75;;;1.98;;
39888;SDS011;25563;50.844;4.308;2024-03-17T14:42:20;3.65;;;1.80;;
39888;SDS011;25563;50.844;4.308;2024-03-17T14:44:48;7.53;;;1.70;;
39888;SDS011;25563;50.844;4.308;2024-03-17T14:47:14;6.47;;;2.03;;
39888;SDS011;25563;50.844;4.308;2024-03-17T14:49:41;5.25;;;2.05;;
39888;SDS011;25563;50.844;4.308;2024-03-17T14:54:36;2.80;;;1.50;;
39888;SDS011;25563;50.844;4.308;2024-03-17T14:57:01;5.13;;;1.20;;
39888;SDS011;25563;50.844;4.308;2024-03-17T14:59:28;3.30;;;0.98;;
39888;SDS011;25563;50.844;4.308;2024-03-17T15:01:54;4.60;;;1.10;;
39888;SDS011;25563;50.844;4.308;2024-03-17T15:04:23;3.30;;;1.33;;
39888;SDS011;25563;50.844;4.308;2024-03-17T15:06:53;3.13;;;1.00;;
39888;SDS011;25563;50.844;4.308;2024-03-17T15:09:20;6.05;;;1.90;;
39888;SDS011;25563;50.844;4.308;2024-03-17T15:11:46;3.28;;;1.10;;
39888;SDS011;25563;50.844;4.308;2024-03-17T15:14:12;3.72;;;1.48;;
39888;SDS011;25563;50.844;4.308;2024-03-17T15:16:38;5.50;;;1.30;;
39888;SDS011;25563;50.844;4.308;2024-03-17T15:19:11;3.33;;;1.17;;
39888;SDS011;25563;50.844;4.308;2024-03-17T15:21:37;4.40;;;1.17;;
39888;SDS011;25563;50.844;4.308;2024-03-17T15:24:03;3.72;;;1.35;;
39888;SDS011;25563;50.844;4.308;2024-03-17T15:26:30;6.13;;;1.42;;
39888;SDS011;25563;50.844;4.308;2024-03-17T15:29:07;4.03;;;1.30;;
39888;SDS011;25563;50.844;4.308;2024-03-17T15:31:47;3.88;;;1.67;;